Canefield Airport

Partly cloudy with slight haze and adjacent showers
27oC (81oF)

Partly cloudy with slight haze and adjacent showers


Winds: East south easterly @ 12kts / 22km/h

Humidity: 67%

Barometric Pressure: 1015 mb

Accumulated Rainfall for June: 56.5 mm

Updated: 18:00 local time (22:00 UTC)

Douglas-Charles Airport

Cloudy with slight haze
27oC (81oF)

Cloudy with slight haze


Winds: East south easterly @ 10kts / 19km/h gusting to 24kts / 44km/h

Humidity: 77%

Barometric Pressure: 1017 mb

Accumulated Rainfall for June: 178.4 mm

Updated: 20:00 local time (00:00 UTC)

Satellite Imagery

Satellite Imagery
Click image for larger view. (Source: National Hurricane Center).

Aviation Routine Report (METAR)

Douglas-Charles: METAR TDPD 240000Z 12010G24KT 9999 BKN017 27/23 Q1017=
Canefield: METAR TDCF 232200Z 12012KT 9999 FEW018 27/20 Q1015=